Time;durP1;ratioP1;P1;durP2;ratioP2;P2;SDS_P1;SDS_P2;PMS_P1;PMS_P2;Temp;Humidity;BMP_temperature;BMP_pressure;BME280_temperature;BME280_humidity;BME280_pressure;Samples;Min_cycle;Max_cycle;Signal;HPM_P1;HPM_P2
2022/08/05 00:00:21;;;;;;;22.10;5.92;;;;;;;20.33;78.65;101127.41;1669843;84;25723;-61
2022/08/05 00:02:50;;;;;;;16.70;6.28;;;;;;;20.31;78.83;101123.19;1669810;85;26135;-61
2022/08/05 00:05:17;;;;;;;15.32;5.70;;;;;;;20.36;79.28;101122.07;1669735;84;26463;-60
2022/08/05 00:07:43;;;;;;;17.75;6.37;;;;;;;20.29;79.59;101119.28;1670089;85;25805;-60
2022/08/05 00:10:11;;;;;;;17.00;5.60;;;;;;;20.20;78.95;101116.34;1669812;85;25893;-61
2022/08/05 00:12:38;;;;;;;11.43;5.75;;;;;;;20.17;79.54;101117.55;1670045;85;25741;-60
2022/08/05 00:15:06;;;;;;;16.40;5.78;;;;;;;20.14;79.44;101112.98;1670104;84;27524;-61
2022/08/05 00:17:33;;;;;;;12.88;6.08;;;;;;;20.12;79.27;101115.92;1669878;84;25769;-61
2022/08/05 00:20:00;;;;;;;8.75;5.80;;;;;;;20.14;79.44;101104.30;1669851;85;25608;-60
2022/08/05 00:22:27;;;;;;;14.80;5.62;;;;;;;20.13;79.32;101103.09;1669922;84;25809;-61
2022/08/05 00:24:54;;;;;;;13.83;6.28;;;;;;;20.10;79.19;101098.88;1664547;86;25833;-60
2022/08/05 00:27:22;;;;;;;23.52;6.33;;;;;;;20.04;78.93;101092.82;1664512;86;27601;-61
2022/08/05 00:29:49;;;;;;;14.50;6.08;;;;;;;19.95;79.05;101095.33;1665532;86;25750;-61
2022/08/05 00:32:16;;;;;;;14.47;6.05;;;;;;;19.93;79.42;101090.57;1665797;85;25534;-60
2022/08/05 00:34:44;;;;;;;12.98;5.53;;;;;;;19.94;79.92;101090.91;1665668;85;25951;-61
2022/08/05 00:37:12;;;;;;;16.15;6.80;;;;;;;19.93;80.08;101077.78;1665851;85;25754;-60
2022/08/05 00:39:41;;;;;;;14.45;6.22;;;;;;;19.95;79.98;101081.67;1665476;85;27645;-60
2022/08/05 00:42:08;;;;;;;20.02;6.67;;;;;;;19.98;80.02;101080.77;1665654;85;25789;-60
2022/08/05 00:44:35;;;;;;;17.90;6.12;;;;;;;20.03;79.97;101086.19;1665360;85;25802;-60
2022/08/05 00:47:02;;;;;;;12.43;5.47;;;;;;;20.05;79.84;101086.33;1667745;84;25809;-60
2022/08/05 00:49:29;;;;;;;11.50;5.75;;;;;;;20.07;79.81;101078.80;1670919;85;25798;-60
2022/08/05 00:51:56;;;;;;;11.57;5.67;;;;;;;20.11;79.80;101083.34;1670794;84;27653;-60
2022/08/05 00:54:22;;;;;;;16.25;6.30;;;;;;;20.07;79.48;101083.39;1669886;85;25741;-60
2022/08/05 00:56:49;;;;;;;16.27;5.87;;;;;;;20.03;79.28;101083.46;1669943;85;25718;-60
2022/08/05 00:59:16;;;;;;;13.80;6.17;;;;;;;19.96;78.99;101080.11;1670160;84;26806;-60
2022/08/05 01:01:43;;;;;;;19.25;6.45;;;;;;;19.94;79.40;101082.20;1669953;85;25766;-61
2022/08/05 01:04:10;;;;;;;19.75;6.37;;;;;;;19.97;79.51;101080.98;1669890;85;27481;-60
2022/08/05 01:06:37;;;;;;;11.48;5.80;;;;;;;19.96;79.47;101080.11;1669872;85;25799;-60
2022/08/05 01:09:05;;;;;;;25.90;6.28;;;;;;;20.00;79.62;101076.48;1669899;84;25793;-60
2022/08/05 01:11:36;;;;;;;11.88;6.72;;;;;;;20.00;79.47;101075.97;1669946;84;25924;-60
2022/08/05 01:14:40;;;;;;;12.68;6.37;;;;;;;19.94;79.03;101074.52;1670045;85;25827;-61
2022/08/05 01:17:11;;;;;;;20.90;6.42;;;;;;;19.86;79.28;101069.50;1655281;85;27483;-61
2022/08/05 01:20:03;;;;;;;18.70;6.25;;;;;;;19.90;79.59;101069.96;1667585;85;25817;-60
2022/08/05 01:23:03;;;;;;;16.93;6.47;;;;;;;19.94;79.67;101069.92;1660784;86;25500;-60
2022/08/05 01:26:12;;;;;;;8.40;5.75;;;;;;;19.96;79.79;101067.83;1630022;87;26039;-60
2022/08/05 01:28:53;;;;;;;14.38;5.65;;;;;;;19.95;79.59;101079.78;1640303;86;25848;-62
2022/08/05 01:31:47;;;;;;;17.67;7.53;;;;;;;19.93;79.24;101079.15;1636974;85;27596;-62
2022/08/05 01:34:24;;;;;;;21.05;6.58;;;;;;;19.89;79.28;101080.55;1639269;86;26687;-62
2022/08/05 01:48:10;;;;;;;11.00;6.60;;;;;;;19.45;80.53;101084.98;1600768;87;25850;-62
2022/08/05 01:50:40;;;;;;;10.60;5.90;;;;;;;19.50;80.44;101085.75;1593879;90;25830;-62
2022/08/05 01:53:11;;;;;;;9.65;6.22;;;;;;;19.51;80.63;101077.90;1641637;87;25796;-62
2022/08/05 01:55:40;;;;;;;12.25;6.10;;;;;;;19.56;80.97;101082.30;1641819;87;25547;-61
2022/08/05 01:58:10;;;;;;;18.30;6.00;;;;;;;19.55;80.62;101085.52;1641933;87;27385;-61
2022/08/05 02:00:42;;;;;;;10.65;5.65;;;;;;;19.60;80.83;101085.48;1641691;87;25694;-62
2022/08/05 02:03:26;;;;;;;10.38;6.10;;;;;;;19.62;80.72;101077.44;1641909;87;25716;-61
2022/08/05 02:05:54;;;;;;;14.35;5.80;;;;;;;19.55;80.17;101077.87;1641984;87;25907;-60
2022/08/05 02:08:22;;;;;;;10.82;5.78;;;;;;;19.54;80.64;101082.99;1652461;86;25798;-62
2022/08/05 02:10:53;;;;;;;14.33;5.90;;;;;;;19.53;81.05;101089.48;1660782;86;27452;-61
2022/08/05 02:13:29;;;;;;;11.35;6.22;;;;;;;19.48;81.21;101085.11;1660552;86;25484;-62
2022/08/05 02:16:04;;;;;;;10.65;5.78;;;;;;;19.42;80.55;101077.66;1660816;85;25497;-62
2022/08/05 02:18:45;;;;;;;10.00;5.67;;;;;;;19.38;80.72;101076.69;1659368;85;25786;-61
2022/08/05 02:21:16;;;;;;;12.68;6.22;;;;;;;19.38;81.04;101078.05;1660728;84;25949;-62
2022/08/05 02:23:51;;;;;;;10.13;6.37;;;;;;;19.42;81.15;101074.43;1662639;85;28518;-61
2022/08/05 02:26:23;;;;;;;20.15;6.75;;;;;;;19.44;81.07;101072.87;1667504;85;25913;-61
2022/08/05 02:28:52;;;;;;;16.42;6.28;;;;;;;19.38;80.72;101071.73;1667587;86;25683;-61
2022/08/05 02:31:28;;;;;;;19.65;6.25;;;;;;;19.41;81.12;101074.63;1667889;85;25723;-62
2022/08/05 02:34:00;;;;;;;13.88;5.95;;;;;;;19.41;81.18;101072.73;1667728;86;25968;-62
2022/08/05 02:36:29;;;;;;;19.52;6.28;;;;;;;19.43;81.28;101078.86;1666289;85;28451;-61
2022/08/05 02:38:56;;;;;;;17.35;5.67;;;;;;;19.45;81.11;101078.66;1667457;85;25825;-61
2022/08/05 02:41:25;;;;;;;12.53;6.47;;;;;;;19.45;81.11;101077.30;1667594;85;25766;-61
2022/08/05 02:43:56;;;;;;;21.05;5.53;;;;;;;19.43;80.92;101077.49;1667656;86;25834;-61
2022/08/05 02:46:24;;;;;;;11.50;5.67;;;;;;;19.42;80.80;101077.66;1664522;86;26147;-61
2022/08/05 02:48:52;;;;;;;12.63;6.33;;;;;;;19.45;80.94;101080.02;1661048;85;27463;-62
2022/08/05 02:51:20;;;;;;;11.68;6.17;;;;;;;19.46;80.81;101086.64;1661050;85;25779;-61
2022/08/05 02:53:49;;;;;;;11.48;6.45;;;;;;;19.47;80.68;101089.70;1660673;85;25814;-61
2022/08/05 02:56:17;;;;;;;13.18;6.05;;;;;;;19.44;80.56;101095.56;1661032;85;26366;-61
2022/08/05 02:58:45;;;;;;;17.07;6.37;;;;;;;19.46;80.86;101092.10;1660768;85;25649;-61
2022/08/05 03:01:19;;;;;;;32.55;6.87;;;;;;;19.45;80.75;101096.39;1660834;85;28397;-62
2022/08/05 03:03:50;;;;;;;11.55;5.45;;;;;;;19.45;80.70;101105.44;1661028;85;26114;-61
2022/08/05 03:06:18;;;;;;;22.80;6.60;;;;;;;19.46;80.86;101100.81;1660880;85;25854;-61
2022/08/05 03:08:46;;;;;;;14.03;6.42;;;;;;;19.49;80.97;101099.92;1660741;85;25776;-60
2022/08/05 03:11:25;;;;;;;10.43;6.83;;;;;;;19.49;80.76;101101.29;1660856;85;25784;-61
2022/08/05 03:13:53;;;;;;;19.15;6.15;;;;;;;19.46;80.42;101100.81;1660848;86;27478;-61
2022/08/05 03:16:21;;;;;;;9.55;6.25;;;;;;;19.42;80.64;101096.25;1660841;85;25511;-61
2022/08/05 03:18:48;;;;;;;10.65;6.00;;;;;;;19.44;81.07;101100.15;1660773;86;25781;-61
2022/08/05 03:21:15;;;;;;;19.30;7.30;;;;;;;19.45;81.25;101103.21;1660450;84;25802;-61
2022/08/05 03:23:43;;;;;;;22.15;9.85;;;;;;;19.44;80.69;101094.20;1655954;86;25929;-60
2022/08/05 03:26:11;;;;;;;13.45;6.87;;;;;;;19.41;80.77;101101.37;1648422;86;28420;-61
2022/08/05 03:28:38;;;;;;;19.17;7.65;;;;;;;19.44;80.88;101097.42;1648926;86;25758;-60
2022/08/05 03:31:06;;;;;;;11.18;7.08;;;;;;;19.44;81.03;101105.11;1649714;85;25752;-62
2022/08/05 03:33:34;;;;;;;18.02;6.55;;;;;;;19.44;81.01;101102.88;1636157;86;25884;-62
2022/08/05 03:36:01;;;;;;;14.58;6.60;;;;;;;19.45;80.82;101097.26;1650034;86;25958;-62
2022/08/05 03:38:28;;;;;;;17.48;7.40;;;;;;;19.50;81.34;101108.94;1649382;86;27523;-62
2022/08/05 03:40:55;;;;;;;24.10;7.22;;;;;;;19.50;80.78;101109.81;1646910;86;25800;-61
2022/08/05 03:43:24;;;;;;;18.87;7.87;;;;;;;19.53;80.91;101103.12;1650471;86;25645;-61
2022/08/05 03:45:53;;;;;;;18.05;7.53;;;;;;;19.56;81.02;101104.13;1653658;86;25784;-62
2022/08/05 03:48:20;;;;;;;18.70;6.70;;;;;;;19.59;80.86;101110.55;1661171;85;25655;-62
2022/08/05 03:50:59;;;;;;;15.88;6.70;;;;;;;19.58;80.66;101107.52;1660642;86;27606;-62
2022/08/05 03:53:36;;;;;;;11.43;6.80;;;;;;;19.62;81.35;101107.98;1660653;85;25845;-62
2022/08/05 03:56:12;;;;;;;25.10;6.50;;;;;;;19.68;81.29;101105.86;1660315;85;26135;-62
2022/08/05 03:58:43;;;;;;;20.88;7.60;;;;;;;19.74;81.23;101095.54;1660648;86;25790;-62
2022/08/05 04:01:12;;;;;;;29.00;11.97;;;;;;;19.81;81.61;101105.19;1661153;85;25786;-62
2022/08/05 04:03:41;;;;;;;16.50;8.38;;;;;;;19.81;80.90;101101.93;1660852;85;27477;-62
2022/08/05 04:06:08;;;;;;;12.80;7.60;;;;;;;19.84;81.02;101108.92;1660927;85;25803;-62
2022/08/05 04:08:37;;;;;;;15.23;7.12;;;;;;;19.91;81.02;101109.88;1660850;85;25821;-60
2022/08/05 04:11:06;;;;;;;18.82;7.53;;;;;;;19.98;80.90;101106.71;1660713;85;26724;-59
2022/08/05 04:13:33;;;;;;;18.42;7.67;;;;;;;20.03;80.82;101104.78;1660598;85;25803;-59
2022/08/05 04:16:00;;;;;;;18.87;7.10;;;;;;;20.10;80.75;101108.96;1660740;85;27459;-60
2022/08/05 04:18:28;;;;;;;20.30;6.53;;;;;;;20.14;81.00;101104.30;1660730;85;25808;-60
2022/08/05 04:20:57;;;;;;;21.77;12.85;;;;;;;20.16;80.92;101113.65;1660566;85;25750;-61
2022/08/05 04:23:26;;;;;;;15.80;7.33;;;;;;;20.15;80.45;101109.22;1658326;85;25778;-61
2022/08/05 04:25:54;;;;;;;19.05;8.15;;;;;;;20.17;80.24;101112.08;1648371;86;25852;-61
2022/08/05 04:28:22;;;;;;;16.70;7.28;;;;;;;20.18;80.29;101112.95;1646748;86;27473;-61
2022/08/05 04:30:49;;;;;;;19.42;7.72;;;;;;;20.18;80.28;101111.05;1648042;86;25773;-60
2022/08/05 04:33:16;;;;;;;20.15;7.22;;;;;;;20.22;80.19;101111.51;1650185;85;25752;-61
2022/08/05 04:35:43;;;;;;;20.05;7.85;;;;;;;20.27;80.14;101110.94;1650385;86;26755;-61
2022/08/05 04:38:10;;;;;;;12.55;8.13;;;;;;;20.38;80.33;101115.07;1650470;86;25811;-61
2022/08/05 04:40:39;;;;;;;15.18;7.60;;;;;;;20.47;80.20;101114.75;1646698;86;27012;-61
2022/08/05 04:43:07;;;;;;;14.05;6.90;;;;;;;20.54;80.05;101126.26;1650329;86;25891;-62
2022/08/05 04:45:35;;;;;;;12.88;7.75;;;;;;;20.58;79.79;101122.11;1651772;86;25561;-62
2022/08/05 04:48:10;;;;;;;22.27;7.03;;;;;;;20.54;80.13;101121.66;1660829;85;25798;-62
2022/08/05 04:50:47;;;;;;;12.28;7.30;;;;;;;20.54;79.95;101114.83;1656261;86;25795;-61
2022/08/05 04:53:16;;;;;;;10.18;5.53;;;;;;;20.53;79.90;101115.03;1660973;85;27535;-61
2022/08/05 04:55:45;;;;;;;15.83;6.62;;;;;;;20.55;79.92;101117.02;1660458;85;25695;-60
2022/08/05 04:58:15;;;;;;;21.48;6.92;;;;;;;20.55;79.89;101113.79;1660630;85;25853;-61
2022/08/05 05:00:43;;;;;;;8.88;6.12;;;;;;;20.59;80.03;101112.88;1660997;85;25745;-61
2022/08/05 05:03:11;;;;;;;12.30;6.22;;;;;;;20.61;80.13;101108.07;1660661;85;26052;-61
2022/08/05 05:05:38;;;;;;;9.73;5.72;;;;;;;20.64;80.22;101107.16;1660866;85;27429;-61
2022/08/05 05:08:09;;;;;;;19.60;6.55;;;;;;;20.63;80.25;101101.36;1660853;85;25530;-61
2022/08/05 05:10:45;;;;;;;10.55;6.20;;;;;;;20.68;80.24;101102.14;1660766;85;25493;-60
2022/08/05 15:04:48;;;;;;;2.87;2.00;;;;;;;41.08;22.95;100818.89;1655277;83;34740;-62
2022/08/05 15:07:16;;;;;;;7.28;2.40;;;;;;;41.63;22.37;100817.53;1661885;85;25798;-62
2022/08/05 15:09:43;;;;;;;4.10;2.52;;;;;;;41.00;22.11;100812.70;1659829;86;25911;-62
2022/08/05 15:12:10;;;;;;;4.50;2.50;;;;;;;40.43;22.84;100812.61;1660563;85;25833;-62
2022/08/05 15:14:38;;;;;;;8.98;2.35;;;;;;;39.49;23.39;100809.35;1660163;86;27487;-62
2022/08/05 15:17:05;;;;;;;10.32;2.33;;;;;;;38.66;24.13;100811.02;1659580;86;25631;-62
2022/08/05 15:19:32;;;;;;;10.70;2.55;;;;;;;37.87;24.52;100814.30;1660788;85;25811;-61
2022/08/05 15:22:03;;;;;;;10.23;2.25;;;;;;;37.13;25.60;100819.69;1660348;85;27276;-62
2022/08/05 15:24:29;;;;;;;6.33;2.20;;;;;;;36.48;26.04;100813.22;1660745;85;25786;-61
2022/08/05 15:26:55;;;;;;;4.45;2.35;;;;;;;36.02;26.72;100817.69;1664730;84;28244;-60
2022/08/05 15:29:22;;;;;;;9.45;3.05;;;;;;;35.39;27.64;100815.05;1671488;84;25780;-61
2022/08/05 15:31:49;;;;;;;5.78;3.08;;;;;;;34.97;28.64;100811.74;1677133;84;25743;-61
2022/08/05 15:34:16;;;;;;;14.90;2.87;;;;;;;34.80;28.99;100808.28;1660485;85;25799;-60
2022/08/05 15:36:43;;;;;;;10.38;2.72;;;;;;;34.45;29.49;100813.19;1662367;85;25802;-61
2022/08/05 15:39:10;;;;;;;3.87;2.70;;;;;;;34.23;30.03;100811.46;1669579;85;27541;-61
2022/08/05 15:41:37;;;;;;;7.95;3.08;;;;;;;33.94;30.52;100806.14;1677573;85;25720;-60
2022/08/05 15:44:04;;;;;;;4.75;2.50;;;;;;;33.64;31.03;100803.88;1678826;84;25824;-61
2022/08/05 15:46:31;;;;;;;4.30;2.70;;;;;;;33.30;31.54;100799.63;1669849;84;25926;-60
2022/08/05 15:48:58;;;;;;;7.10;2.77;;;;;;;33.03;32.00;100803.16;1670867;85;25910;-61
2022/08/05 15:51:26;;;;;;;5.58;2.62;;;;;;;32.73;32.34;100799.36;1667836;84;27496;-60
2022/08/05 15:53:53;;;;;;;8.65;2.87;;;;;;;32.70;32.94;100800.49;1639480;85;25786;-61
2022/08/05 15:56:21;;;;;;;9.25;3.30;;;;;;;32.74;32.98;100807.14;1660402;85;25838;-60
2022/08/05 15:58:48;;;;;;;7.58;3.20;;;;;;;32.62;33.22;100808.87;1672327;84;25806;-61
2022/08/05 16:01:17;;;;;;;7.50;2.85;;;;;;;32.38;33.90;100805.88;1664057;85;25793;-61
2022/08/05 16:03:48;;;;;;;8.03;3.15;;;;;;;32.14;34.07;100805.89;1665811;85;27532;-61
2022/08/05 16:06:16;;;;;;;8.40;3.90;;;;;;;32.31;34.09;100812.59;1661144;85;26163;-62
2022/08/05 16:08:43;;;;;;;13.93;3.00;;;;;;;32.95;33.45;100812.09;1656150;85;25537;-60
2022/08/05 16:11:12;;;;;;;6.95;3.17;;;;;;;33.50;32.83;100807.89;1662863;86;25879;-61
2022/08/05 16:13:39;;;;;;;14.58;2.85;;;;;;;34.05;31.50;100806.89;1665573;84;25783;-60
2022/08/05 16:16:06;;;;;;;4.92;2.17;;;;;;;34.10;31.08;100806.83;1663897;85;27482;-60
2022/08/05 16:18:33;;;;;;;3.98;2.27;;;;;;;34.35;30.32;100807.68;1666538;84;25887;-60
2022/08/05 16:21:01;;;;;;;2.55;2.33;;;;;;;34.83;30.59;100806.84;1681278;84;25747;-61
2022/08/05 16:23:28;;;;;;;6.95;2.30;;;;;;;35.34;29.43;100801.12;1679072;84;25851;-61
2022/08/05 16:26:10;;;;;;;5.53;2.37;;;;;;;35.05;29.80;100800.73;1675050;85;25757;-61
2022/08/05 16:28:38;;;;;;;4.53;2.55;;;;;;;34.39;30.71;100806.55;1669496;85;27434;-61
2022/08/05 16:31:06;;;;;;;8.15;2.27;;;;;;;33.88;30.81;100810.11;1668951;85;25872;-61
2022/08/05 16:33:35;;;;;;;5.47;2.62;;;;;;;33.28;31.20;100811.62;1669847;85;26415;-61
2022/08/05 16:36:04;;;;;;;2.75;2.30;;;;;;;32.82;32.09;100809.94;1657667;85;26743;-61
2022/08/05 16:38:32;;;;;;;4.67;2.20;;;;;;;32.48;32.42;100807.24;1652096;86;25825;-61
2022/08/05 16:41:01;;;;;;;5.83;2.55;;;;;;;32.08;33.03;100808.42;1645323;85;27470;-61
2022/08/05 16:43:34;;;;;;;11.80;2.75;;;;;;;31.84;33.16;100806.23;1662857;86;25731;-61
2022/08/05 16:46:03;;;;;;;4.50;2.30;;;;;;;31.58;34.05;100807.31;1663664;86;25864;-61
2022/08/05 16:48:31;;;;;;;9.40;3.17;;;;;;;31.38;34.37;100808.95;1660748;86;25779;-61
2022/08/05 16:50:58;;;;;;;5.90;2.58;;;;;;;31.23;34.89;100805.58;1660725;86;25803;-61
2022/08/05 16:53:25;;;;;;;7.92;3.05;;;;;;;31.10;35.28;100806.94;1661573;85;27478;-60
2022/08/05 16:55:52;;;;;;;8.50;2.90;;;;;;;30.98;35.52;100807.70;1672667;84;25855;-60
2022/08/05 16:58:19;;;;;;;8.20;2.95;;;;;;;30.86;35.63;100803.77;1653217;85;25846;-60
2022/08/05 17:00:47;;;;;;;9.63;2.98;;;;;;;30.76;36.06;100801.80;1660720;85;25801;-60
2022/08/05 17:03:14;;;;;;;19.70;3.27;;;;;;;30.71;36.18;100804.54;1637222;85;25785;-61
2022/08/05 17:05:40;;;;;;;12.23;3.08;;;;;;;30.69;36.66;100806.20;1681331;84;27436;-60
2022/08/05 17:08:08;;;;;;;9.13;3.50;;;;;;;30.67;36.99;100807.59;1685453;84;25778;-60
2022/08/05 17:10:35;;;;;;;8.05;2.47;;;;;;;30.65;37.26;100812.03;1669604;84;25739;-61
2022/08/05 17:13:01;;;;;;;13.58;5.40;;;;;;;30.69;37.57;100812.33;1668985;84;25775;-61
2022/08/05 17:15:29;;;;;;;28.25;4.17;;;;;;;30.68;37.77;100818.98;1683982;84;25814;-61
2022/08/05 17:17:56;;;;;;;4.42;2.95;;;;;;;30.66;37.97;100810.08;1694862;83;27474;-61
2022/08/05 17:20:23;;;;;;;13.15;3.60;;;;;;;30.63;38.52;100813.39;1694675;83;25747;-61
2022/08/05 17:22:50;;;;;;;25.30;3.65;;;;;;;30.57;38.87;100810.60;1693748;83;25726;-61
2022/08/05 17:25:18;;;;;;;10.85;3.00;;;;;;;30.52;38.99;100818.06;1676544;84;25808;-64
2022/08/05 17:27:45;;;;;;;12.30;3.30;;;;;;;30.47;39.50;100820.80;1672637;85;25824;-61
2022/08/05 17:30:15;;;;;;;10.53;3.02;;;;;;;30.38;39.67;100821.30;1644142;85;28586;-60
2022/08/05 17:32:42;;;;;;;15.55;3.95;;;;;;;30.14;40.26;100823.63;1642264;86;25837;-60
2022/08/05 17:35:10;;;;;;;11.88;3.70;;;;;;;29.93;40.78;100823.47;1677876;83;25559;-60
2022/08/05 17:37:38;;;;;;;5.97;3.62;;;;;;;29.80;41.03;100824.73;1690565;84;26628;-61
2022/08/05 17:40:10;;;;;;;7.83;3.35;;;;;;;29.71;41.72;100837.40;1692158;84;25788;-60
2022/08/05 17:42:37;;;;;;;7.50;2.85;;;;;;;29.58;41.64;100836.45;1697498;82;28131;-60
2022/08/05 17:45:06;;;;;;;7.53;3.15;;;;;;;29.46;42.33;100847.14;1694706;84;25804;-60
2022/08/05 17:47:33;;;;;;;14.85;4.08;;;;;;;29.36;42.93;100839.55;1668271;84;25709;-60
2022/08/05 17:49:59;;;;;;;11.60;3.80;;;;;;;29.27;43.33;100845.80;1673388;84;25838;-60
2022/08/05 17:52:27;;;;;;;17.70;4.47;;;;;;;29.16;43.86;100847.06;1675686;85;25803;-60
2022/08/05 17:54:54;;;;;;;19.62;4.30;;;;;;;29.05;44.23;100855.80;1676095;85;27425;-60
2022/08/05 17:57:23;;;;;;;18.55;4.12;;;;;;;28.96;44.78;100857.87;1694400;84;25748;-61
2022/08/05 17:59:50;;;;;;;16.77;4.55;;;;;;;28.84;44.89;100863.55;1703709;83;25704;-60
2022/08/05 18:02:17;;;;;;;21.42;6.03;;;;;;;28.68;45.45;100859.73;1704123;84;25862;-61
2022/08/05 18:04:44;;;;;;;7.83;3.30;;;;;;;28.58;45.83;100865.94;1704101;84;26118;-61
2022/08/05 18:07:12;;;;;;;20.72;6.40;;;;;;;28.49;46.32;100868.31;1703215;83;27609;-61
2022/08/05 18:09:41;;;;;;;10.58;4.83;;;;;;;28.39;46.23;100867.60;1696610;83;25636;-59
2022/08/05 18:12:09;;;;;;;17.45;5.80;;;;;;;28.31;46.56;100871.36;1706444;83;25749;-61
2022/08/05 18:14:37;;;;;;;16.77;6.05;;;;;;;28.17;46.81;100874.45;1683037;84;25786;-59
2022/08/05 18:17:04;;;;;;;18.17;6.03;;;;;;;28.02;47.27;100874.17;1671837;84;25984;-59
2022/08/05 18:19:32;;;;;;;15.68;6.60;;;;;;;27.88;47.55;100880.02;1672087;85;27479;-59
2022/08/05 18:22:00;;;;;;;13.03;6.08;;;;;;;27.74;48.06;100878.14;1672038;85;25565;-59
2022/08/05 18:24:27;;;;;;;15.43;6.22;;;;;;;27.69;48.31;100877.20;1671635;85;25701;-60
2022/08/05 18:26:54;;;;;;;13.68;6.53;;;;;;;27.64;48.35;100886.23;1671647;85;25853;-60
2022/08/05 18:29:21;;;;;;;16.32;6.60;;;;;;;27.61;48.50;100888.93;1672117;84;26084;-60
2022/08/05 18:31:48;;;;;;;14.23;7.28;;;;;;;27.55;49.00;100886.34;1671792;85;28499;-61
2022/08/05 18:34:15;;;;;;;13.88;5.70;;;;;;;27.49;49.04;100892.31;1672126;84;27294;-62
2022/08/05 18:36:42;;;;;;;11.18;6.33;;;;;;;27.42;49.52;100896.56;1687175;84;25761;-61
2022/08/05 18:39:09;;;;;;;18.90;8.58;;;;;;;27.37;49.83;100902.52;1677843;84;25947;-61
2022/08/05 18:41:36;;;;;;;15.55;7.97;;;;;;;27.27;50.16;100899.84;1677581;84;25861;-61
2022/08/05 18:44:04;;;;;;;17.10;7.58;;;;;;;27.23;50.64;100901.44;1677810;85;27462;-60
2022/08/05 18:46:31;;;;;;;12.55;8.90;;;;;;;27.15;50.53;100908.73;1684169;84;25746;-60
2022/08/05 18:52:31;;;;;;;13.80;9.93;;;;;;;27.07;50.60;100903.03;1671667;84;25767;-60
2022/08/05 18:54:14;;;;;;;15.40;8.93;;;;;;;26.78;51.31;100895.23;1671775;85;26647;-60
2022/08/05 18:56:42;;;;;;;18.02;8.33;;;;;;;26.69;51.90;100907.98;1703471;84;27502;-60
2022/08/05 18:59:09;;;;;;;15.20;7.97;;;;;;;26.66;52.16;100903.48;1704200;84;25963;-60
2022/08/05 19:01:36;;;;;;;11.30;7.70;;;;;;;26.60;52.36;100899.77;1704372;83;25689;-60
2022/08/05 19:04:03;;;;;;;19.92;8.03;;;;;;;26.59;52.62;100899.98;1703841;84;26155;-60
2022/08/05 19:06:30;;;;;;;14.30;7.65;;;;;;;26.54;52.42;100901.56;1699939;83;25937;-60
2022/08/05 19:08:58;;;;;;;16.00;8.88;;;;;;;26.51;52.48;100904.80;1675116;84;27485;-61
2022/08/05 19:11:25;;;;;;;15.68;9.05;;;;;;;26.45;52.73;100900.80;1671832;85;25763;-60
2022/08/05 19:13:52;;;;;;;16.37;9.48;;;;;;;26.37;53.14;100902.80;1671538;84;26337;-61
2022/08/05 19:16:18;;;;;;;27.62;9.13;;;;;;;26.32;53.26;100899.94;1678427;84;25784;-60
2022/08/05 19:18:45;;;;;;;21.25;8.95;;;;;;;26.28;53.50;100892.38;1689545;84;25804;-60
2022/08/05 19:21:16;;;;;;;14.80;8.43;;;;;;;26.18;53.75;100890.19;1691511;84;28447;-59
2022/08/05 19:23:44;;;;;;;14.63;7.95;;;;;;;26.15;54.13;100890.13;1706023;82;25726;-61
2022/08/05 19:26:12;;;;;;;15.25;9.03;;;;;;;26.11;53.92;100897.73;1706225;84;25843;-62
2022/08/05 19:28:41;;;;;;;15.60;8.50;;;;;;;26.08;54.04;100891.65;1706061;84;25802;-60
2022/08/05 19:31:12;;;;;;;19.48;8.85;;;;;;;26.06;54.20;100895.14;1701956;83;25730;-60
2022/08/05 19:33:40;;;;;;;11.60;7.75;;;;;;;25.99;54.52;100891.66;1704383;84;27591;-60
2022/08/05 19:36:08;;;;;;;17.10;7.12;;;;;;;25.98;54.65;100896.86;1705999;84;25686;-61
2022/08/05 19:38:36;;;;;;;14.73;7.70;;;;;;;25.99;54.79;100894.94;1706553;83;25459;-60
2022/08/05 19:41:05;;;;;;;18.75;9.38;;;;;;;25.97;55.01;100893.80;1706060;82;25807;-61
2022/08/05 19:43:31;;;;;;;12.45;7.58;;;;;;;25.95;54.97;100897.33;1706459;83;25814;-60
2022/08/05 19:45:58;;;;;;;11.12;7.15;;;;;;;25.93;55.09;100888.45;1695081;84;27450;-61
2022/08/05 19:48:25;;;;;;;13.62;8.05;;;;;;;25.92;55.27;100888.14;1672172;85;25846;-60
2022/08/05 19:50:53;;;;;;;12.68;8.85;;;;;;;25.88;55.55;100888.33;1694600;84;25717;-60
2022/08/05 19:53:25;;;;;;;18.57;9.18;;;;;;;25.83;56.12;100883.52;1693371;84;25795;-61
2022/08/05 19:55:52;;;;;;;20.88;9.08;;;;;;;25.74;55.96;100888.52;1703122;83;25814;-60
2022/08/05 19:58:19;;;;;;;22.85;10.53;;;;;;;25.71;55.69;100890.91;1704153;83;27635;-61
2022/08/05 20:00:47;;;;;;;23.67;10.98;;;;;;;25.64;56.07;100885.48;1704126;84;25852;-61
2022/08/05 20:03:14;;;;;;;26.85;11.45;;;;;;;25.56;56.74;100887.19;1699852;84;25776;-61
2022/08/05 20:05:40;;;;;;;29.48;12.55;;;;;;;25.53;56.67;100884.37;1703951;83;25790;-61
2022/08/05 20:08:07;;;;;;;18.05;7.83;;;;;;;25.54;56.70;100879.17;1688272;83;25971;-61
2022/08/05 20:10:38;;;;;;;18.00;10.98;;;;;;;25.55;57.29;100884.16;1683012;84;46287;-60
2022/08/05 20:13:05;;;;;;;23.00;10.43;;;;;;;25.54;57.31;100879.72;1692985;84;25870;-61
2022/08/05 20:15:33;;;;;;;20.23;12.55;;;;;;;25.50;58.05;100889.51;1632550;87;25652;-60
2022/08/05 20:18:05;;;;;;;25.60;11.70;;;;;;;25.49;58.12;100888.69;1633249;87;25798;-61
2022/08/05 20:20:32;;;;;;;33.38;16.12;;;;;;;25.48;58.20;100889.75;1643947;86;25746;-61
2022/08/05 20:23:02;;;;;;;28.90;16.87;;;;;;;25.50;57.97;100886.23;1667165;85;27565;-61
2022/08/05 20:25:27;;;;;;;39.55;19.92;;;;;;;25.45;58.41;100888.31;1667739;84;25890;-60
2022/08/05 20:27:54;;;;;;;34.53;18.42;;;;;;;25.46;58.43;100884.45;1667249;85;25798;-60
2022/08/05 20:30:21;;;;;;;26.73;18.35;;;;;;;25.47;58.48;100887.52;1649009;85;25903;-59
2022/08/05 20:32:49;;;;;;;40.38;20.72;;;;;;;25.44;58.38;100885.77;1677411;84;25658;-60
2022/08/05 20:35:16;;;;;;;44.00;19.05;;;;;;;25.40;58.35;100881.27;1675566;84;27475;-60
2022/08/05 20:37:43;;;;;;;25.37;16.07;;;;;;;25.42;58.53;100887.39;1675505;85;25513;-60
2022/08/05 20:40:11;;;;;;;36.88;17.10;;;;;;;25.49;58.39;100895.56;1675675;84;25782;-59
2022/08/05 20:42:38;;;;;;;28.10;15.65;;;;;;;25.51;58.34;100894.77;1680874;84;25793;-60
2022/08/05 20:45:06;;;;;;;28.05;15.85;;;;;;;25.43;58.49;100890.45;1703735;84;25781;-59
2022/08/05 20:47:33;;;;;;;24.30;15.23;;;;;;;25.29;58.57;100890.27;1663365;84;27396;-61
2022/08/05 20:50:01;;;;;;;24.90;13.32;;;;;;;25.22;59.21;100886.25;1668404;84;25572;-60
2022/08/05 20:52:30;;;;;;;25.45;12.88;;;;;;;25.23;59.38;100887.08;1669127;84;25844;-60
2022/08/05 20:54:57;;;;;;;20.20;12.65;;;;;;;25.24;59.45;100883.25;1692337;84;25817;-60
2022/08/05 20:57:24;;;;;;;18.60;11.03;;;;;;;25.24;59.28;100879.95;1661279;85;25808;-60
2022/08/05 20:59:51;;;;;;;15.48;11.75;;;;;;;25.18;59.53;100885.56;1667679;85;27661;-60
2022/08/05 21:02:18;;;;;;;19.32;9.48;;;;;;;25.14;59.85;100880.52;1666724;85;25753;-60
2022/08/05 21:04:44;;;;;;;16.70;10.60;;;;;;;25.09;59.80;100884.51;1673870;85;25874;-60
2022/08/05 21:07:12;;;;;;;27.75;11.35;;;;;;;25.06;59.75;100884.95;1675050;84;25798;-61
2022/08/05 21:09:40;;;;;;;16.30;9.75;;;;;;;25.06;59.78;100877.22;1672013;84;25845;-60
2022/08/05 21:12:07;;;;;;;17.57;9.93;;;;;;;25.05;59.90;100880.52;1671924;84;28261;-60
2022/08/05 21:14:35;;;;;;;18.12;9.05;;;;;;;25.04;59.77;100883.52;1681717;84;25785;-59
2022/08/05 21:17:05;;;;;;;22.52;9.43;;;;;;;25.02;60.06;100885.64;1671438;85;25707;-60
2022/08/05 21:19:34;;;;;;;12.23;8.80;;;;;;;24.99;60.25;100884.20;1679108;84;26496;-59
2022/08/05 21:22:01;;;;;;;17.32;8.68;;;;;;;24.93;60.33;100877.70;1677472;84;25746;-60
2022/08/05 21:24:28;;;;;;;17.87;7.78;;;;;;;24.91;60.90;100885.34;1677782;84;27595;-60
2022/08/05 21:26:56;;;;;;;16.90;8.58;;;;;;;24.89;60.99;100883.34;1677763;84;25760;-60
2022/08/05 21:29:25;;;;;;;11.53;7.75;;;;;;;24.86;61.17;100882.44;1699713;83;25813;-60